sensor_id;sensor_type;location;lat;lon;timestamp;temperature;humidity
421;DHT22;23959;49.046;8.468;2022-07-23T00:00:18;24.40;99.60
421;DHT22;23959;49.046;8.468;2022-07-23T00:02:45;24.40;99.60
421;DHT22;23959;49.046;8.468;2022-07-23T00:05:12;24.50;99.60
421;DHT22;23959;49.046;8.468;2022-07-23T00:07:40;24.40;99.60
421;DHT22;23959;49.046;8.468;2022-07-23T00:10:09;24.40;99.60
421;DHT22;23959;49.046;8.468;2022-07-23T00:12:37;24.40;99.60
421;DHT22;23959;49.046;8.468;2022-07-23T00:15:05;24.30;99.60
421;DHT22;23959;49.046;8.468;2022-07-23T00:17:32;24.40;99.60
421;DHT22;23959;49.046;8.468;2022-07-23T00:19:58;24.50;99.60
421;DHT22;23959;49.046;8.468;2022-07-23T00:22:26;24.60;99.60
421;DHT22;23959;49.046;8.468;2022-07-23T00:24:57;24.60;99.60
421;DHT22;23959;49.046;8.468;2022-07-23T00:27:25;24.70;99.60
421;DHT22;23959;49.046;8.468;2022-07-23T00:29:52;24.70;99.60
421;DHT22;23959;49.046;8.468;2022-07-23T00:32:20;24.60;99.60
421;DHT22;23959;49.046;8.468;2022-07-23T00:34:48;24.60;99.60
421;DHT22;23959;49.046;8.468;2022-07-23T00:37:17;24.60;99.60
421;DHT22;23959;49.046;8.468;2022-07-23T00:39:45;24.60;99.60
421;DHT22;23959;49.046;8.468;2022-07-23T00:42:12;24.70;99.60
421;DHT22;23959;49.046;8.468;2022-07-23T00:44:43;24.60;99.60
421;DHT22;23959;49.046;8.468;2022-07-23T00:47:11;24.60;99.60
421;DHT22;23959;49.046;8.468;2022-07-23T00:49:38;24.60;99.60
421;DHT22;23959;49.046;8.468;2022-07-23T00:52:06;24.50;99.60
421;DHT22;23959;49.046;8.468;2022-07-23T00:54:34;24.50;99.60
421;DHT22;23959;49.046;8.468;2022-07-23T00:57:03;24.50;99.60
421;DHT22;23959;49.046;8.468;2022-07-23T00:59:31;24.40;99.60
421;DHT22;23959;49.046;8.468;2022-07-23T01:02:00;24.40;99.60
421;DHT22;23959;49.046;8.468;2022-07-23T01:04:28;24.40;99.60
421;DHT22;23959;49.046;8.468;2022-07-23T01:06:56;24.30;99.60
421;DHT22;23959;49.046;8.468;2022-07-23T01:09:24;24.30;99.60
421;DHT22;23959;49.046;8.468;2022-07-23T01:11:54;24.30;99.60
421;DHT22;23959;49.046;8.468;2022-07-23T01:14:21;24.20;99.60
421;DHT22;23959;49.046;8.468;2022-07-23T01:16:49;24.20;99.60
421;DHT22;23959;49.046;8.468;2022-07-23T01:19:16;24.20;99.60
421;DHT22;23959;49.046;8.468;2022-07-23T01:21:49;24.20;99.60
421;DHT22;23959;49.046;8.468;2022-07-23T01:24:16;24.10;99.60
421;DHT22;23959;49.046;8.468;2022-07-23T01:26:47;24.10;99.60
421;DHT22;23959;49.046;8.468;2022-07-23T01:29:14;24.10;99.60
421;DHT22;23959;49.046;8.468;2022-07-23T01:31:43;24.00;99.60
421;DHT22;23959;49.046;8.468;2022-07-23T01:34:10;24.00;99.60
421;DHT22;23959;49.046;8.468;2022-07-23T01:36:37;23.90;99.60
421;DHT22;23959;49.046;8.468;2022-07-23T01:39:07;23.90;99.60
421;DHT22;23959;49.046;8.468;2022-07-23T01:41:34;23.90;99.60
421;DHT22;23959;49.046;8.468;2022-07-23T01:44:01;23.80;99.60
421;DHT22;23959;49.046;8.468;2022-07-23T01:46:28;23.80;99.60
421;DHT22;23959;49.046;8.468;2022-07-23T01:48:56;23.80;99.60
421;DHT22;23959;49.046;8.468;2022-07-23T01:51:23;23.70;99.60
421;DHT22;23959;49.046;8.468;2022-07-23T01:53:51;23.60;99.60
421;DHT22;23959;49.046;8.468;2022-07-23T01:56:18;23.50;99.60
421;DHT22;23959;49.046;8.468;2022-07-23T01:58:49;23.50;99.60
421;DHT22;23959;49.046;8.468;2022-07-23T02:01:16;23.50;99.60
421;DHT22;23959;49.046;8.468;2022-07-23T02:03:47;23.40;99.60
421;DHT22;23959;49.046;8.468;2022-07-23T02:06:14;23.30;99.60
421;DHT22;23959;49.046;8.468;2022-07-23T02:08:42;23.20;99.60
421;DHT22;23959;49.046;8.468;2022-07-23T02:11:09;23.20;99.60
421;DHT22;23959;49.046;8.468;2022-07-23T02:13:36;23.20;99.60
421;DHT22;23959;49.046;8.468;2022-07-23T02:16:05;23.20;99.60
421;DHT22;23959;49.046;8.468;2022-07-23T02:18:33;23.20;99.60
421;DHT22;23959;49.046;8.468;2022-07-23T02:21:05;23.20;99.60
421;DHT22;23959;49.046;8.468;2022-07-23T02:23:33;23.20;99.60
421;DHT22;23959;49.046;8.468;2022-07-23T02:26:01;23.00;99.60
421;DHT22;23959;49.046;8.468;2022-07-23T02:28:28;22.80;99.60
421;DHT22;23959;49.046;8.468;2022-07-23T02:30:55;22.70;99.60
421;DHT22;23959;49.046;8.468;2022-07-23T02:33:22;22.70;99.60
421;DHT22;23959;49.046;8.468;2022-07-23T02:35:50;22.60;99.60
421;DHT22;23959;49.046;8.468;2022-07-23T02:38:18;22.30;99.60
421;DHT22;23959;49.046;8.468;2022-07-23T02:40:46;22.20;99.60
421;DHT22;23959;49.046;8.468;2022-07-23T02:43:14;22.20;99.60
421;DHT22;23959;49.046;8.468;2022-07-23T02:45:41;22.10;99.60
421;DHT22;23959;49.046;8.468;2022-07-23T02:48:08;21.90;99.60
421;DHT22;23959;49.046;8.468;2022-07-23T02:50:35;22.00;99.60
421;DHT22;23959;49.046;8.468;2022-07-23T02:53:04;22.00;99.60
421;DHT22;23959;49.046;8.468;2022-07-23T02:55:31;21.90;99.60
421;DHT22;23959;49.046;8.468;2022-07-23T02:58:00;22.00;99.60
421;DHT22;23959;49.046;8.468;2022-07-23T03:00:28;22.10;99.60
421;DHT22;23959;49.046;8.468;2022-07-23T03:02:56;22.20;99.60
421;DHT22;23959;49.046;8.468;2022-07-23T03:05:27;22.20;99.60
421;DHT22;23959;49.046;8.468;2022-07-23T03:07:55;22.20;99.60
421;DHT22;23959;49.046;8.468;2022-07-23T03:10:23;22.30;99.60
421;DHT22;23959;49.046;8.468;2022-07-23T03:12:51;22.30;99.60
421;DHT22;23959;49.046;8.468;2022-07-23T03:15:18;22.20;99.60
421;DHT22;23959;49.046;8.468;2022-07-23T03:17:45;22.20;99.60
421;DHT22;23959;49.046;8.468;2022-07-23T03:20:13;22.10;99.60
421;DHT22;23959;49.046;8.468;2022-07-23T03:22:41;22.20;99.60
421;DHT22;23959;49.046;8.468;2022-07-23T03:25:10;22.10;99.60
421;DHT22;23959;49.046;8.468;2022-07-23T03:27:37;22.00;99.60
421;DHT22;23959;49.046;8.468;2022-07-23T03:30:04;22.00;99.60
421;DHT22;23959;49.046;8.468;2022-07-23T03:32:32;22.10;99.60
421;DHT22;23959;49.046;8.468;2022-07-23T03:35:00;22.30;99.60
421;DHT22;23959;49.046;8.468;2022-07-23T03:37:31;22.20;99.60
421;DHT22;23959;49.046;8.468;2022-07-23T03:40:03;22.10;99.60
421;DHT22;23959;49.046;8.468;2022-07-23T03:42:33;22.00;99.60
421;DHT22;23959;49.046;8.468;2022-07-23T03:45:01;22.00;99.60
421;DHT22;23959;49.046;8.468;2022-07-23T03:47:28;21.90;99.60
421;DHT22;23959;49.046;8.468;2022-07-23T03:49:55;21.80;99.60
421;DHT22;23959;49.046;8.468;2022-07-23T03:54:48;21.30;99.60
421;DHT22;23959;49.046;8.468;2022-07-23T03:57:20;21.30;99.60
421;DHT22;23959;49.046;8.468;2022-07-23T03:59:48;21.30;99.60
421;DHT22;23959;49.046;8.468;2022-07-23T04:02:15;21.20;99.60
421;DHT22;23959;49.046;8.468;2022-07-23T04:04:42;21.20;99.60
421;DHT22;23959;49.046;8.468;2022-07-23T04:07:08;21.20;99.60
421;DHT22;23959;49.046;8.468;2022-07-23T04:09:36;21.30;99.60
421;DHT22;23959;49.046;8.468;2022-07-23T04:12:04;21.50;99.60
421;DHT22;23959;49.046;8.468;2022-07-23T04:14:32;21.80;99.60
421;DHT22;23959;49.046;8.468;2022-07-23T04:16:59;21.90;99.60
421;DHT22;23959;49.046;8.468;2022-07-23T04:19:28;22.00;99.60
421;DHT22;23959;49.046;8.468;2022-07-23T04:21:57;22.10;99.60
421;DHT22;23959;49.046;8.468;2022-07-23T04:24:25;22.10;99.60
421;DHT22;23959;49.046;8.468;2022-07-23T04:26:56;22.40;99.60
421;DHT22;23959;49.046;8.468;2022-07-23T04:29:23;22.40;99.60
421;DHT22;23959;49.046;8.468;2022-07-23T04:31:51;22.40;99.60
421;DHT22;23959;49.046;8.468;2022-07-23T04:34:17;22.30;99.60
421;DHT22;23959;49.046;8.468;2022-07-23T04:36:44;22.10;99.60
421;DHT22;23959;49.046;8.468;2022-07-23T04:39:12;22.00;99.60
421;DHT22;23959;49.046;8.468;2022-07-23T04:41:39;21.70;99.60
421;DHT22;23959;49.046;8.468;2022-07-23T04:44:05;21.50;99.60
421;DHT22;23959;49.046;8.468;2022-07-23T04:46:32;21.50;99.60
421;DHT22;23959;49.046;8.468;2022-07-23T04:49:03;21.50;99.60
421;DHT22;23959;49.046;8.468;2022-07-23T04:51:32;21.50;99.60
421;DHT22;23959;49.046;8.468;2022-07-23T04:54:03;21.70;99.60
421;DHT22;23959;49.046;8.468;2022-07-23T04:56:31;22.10;99.60
421;DHT22;23959;49.046;8.468;2022-07-23T04:58:58;21.90;99.60
421;DHT22;23959;49.046;8.468;2022-07-23T05:01:26;21.60;99.60
421;DHT22;23959;49.046;8.468;2022-07-23T05:03:53;21.40;99.60
421;DHT22;23959;49.046;8.468;2022-07-23T05:06:42;21.30;99.60
421;DHT22;23959;49.046;8.468;2022-07-23T05:09:10;21.20;99.60
421;DHT22;23959;49.046;8.468;2022-07-23T05:11:37;21.30;99.60
421;DHT22;23959;49.046;8.468;2022-07-23T05:14:03;21.30;99.60
421;DHT22;23959;49.046;8.468;2022-07-23T05:16:30;21.30;99.60
421;DHT22;23959;49.046;8.468;2022-07-23T05:18:58;21.30;99.60
421;DHT22;23959;49.046;8.468;2022-07-23T05:21:24;21.30;99.60
421;DHT22;23959;49.046;8.468;2022-07-23T05:23:51;21.20;99.60
421;DHT22;23959;49.046;8.468;2022-07-23T05:26:18;21.10;99.60
421;DHT22;23959;49.046;8.468;2022-07-23T05:28:45;21.10;99.60
421;DHT22;23959;49.046;8.468;2022-07-23T05:31:13;21.10;99.60
421;DHT22;23959;49.046;8.468;2022-07-23T05:33:40;21.10;99.60
421;DHT22;23959;49.046;8.468;2022-07-23T05:36:08;21.00;99.60
421;DHT22;23959;49.046;8.468;2022-07-23T05:38:36;20.80;99.60
421;DHT22;23959;49.046;8.468;2022-07-23T05:41:03;20.80;99.60
421;DHT22;23959;49.046;8.468;2022-07-23T05:43:31;20.90;99.60
421;DHT22;23959;49.046;8.468;2022-07-23T05:45:58;21.10;99.60
421;DHT22;23959;49.046;8.468;2022-07-23T05:48:27;21.30;99.60
421;DHT22;23959;49.046;8.468;2022-07-23T05:50:58;21.50;99.60
421;DHT22;23959;49.046;8.468;2022-07-23T05:53:27;21.60;99.60
421;DHT22;23959;49.046;8.468;2022-07-23T05:55:55;21.60;99.60
421;DHT22;23959;49.046;8.468;2022-07-23T05:58:24;21.70;99.60
421;DHT22;23959;49.046;8.468;2022-07-23T06:00:51;21.70;99.60
421;DHT22;23959;49.046;8.468;2022-07-23T06:03:20;21.70;99.60
421;DHT22;23959;49.046;8.468;2022-07-23T06:05:47;21.50;99.60
421;DHT22;23959;49.046;8.468;2022-07-23T06:08:15;21.30;99.60
421;DHT22;23959;49.046;8.468;2022-07-23T06:10:43;21.30;99.60
421;DHT22;23959;49.046;8.468;2022-07-23T06:13:11;21.30;99.60
421;DHT22;23959;49.046;8.468;2022-07-23T06:15:39;21.10;99.60
421;DHT22;23959;49.046;8.468;2022-07-23T06:18:06;21.10;99.60
421;DHT22;23959;49.046;8.468;2022-07-23T06:20:34;21.20;99.60
421;DHT22;23959;49.046;8.468;2022-07-23T06:23:01;21.30;99.60
421;DHT22;23959;49.046;8.468;2022-07-23T06:25:29;21.40;99.60
421;DHT22;23959;49.046;8.468;2022-07-23T06:27:58;21.30;99.60
421;DHT22;23959;49.046;8.468;2022-07-23T06:30:27;21.30;99.60
421;DHT22;23959;49.046;8.468;2022-07-23T06:32:55;21.40;99.60
421;DHT22;23959;49.046;8.468;2022-07-23T06:35:22;21.40;99.60
421;DHT22;23959;49.046;8.468;2022-07-23T06:37:51;21.60;99.60
421;DHT22;23959;49.046;8.468;2022-07-23T06:40:19;21.80;99.60
421;DHT22;23959;49.046;8.468;2022-07-23T06:42:50;21.90;99.60
421;DHT22;23959;49.046;8.468;2022-07-23T06:45:18;22.00;99.60
421;DHT22;23959;49.046;8.468;2022-07-23T06:47:45;22.00;99.60
421;DHT22;23959;49.046;8.468;2022-07-23T06:50:16;22.10;99.60
421;DHT22;23959;49.046;8.468;2022-07-23T06:52:43;22.20;99.60
421;DHT22;23959;49.046;8.468;2022-07-23T06:55:13;22.30;99.60
421;DHT22;23959;49.046;8.468;2022-07-23T06:57:40;22.40;99.60
421;DHT22;23959;49.046;8.468;2022-07-23T07:00:10;22.40;99.60
421;DHT22;23959;49.046;8.468;2022-07-23T07:02:37;22.50;99.60
421;DHT22;23959;49.046;8.468;2022-07-23T07:05:06;22.50;99.60
421;DHT22;23959;49.046;8.468;2022-07-23T07:07:36;22.80;99.60
421;DHT22;23959;49.046;8.468;2022-07-23T07:10:05;23.00;99.60
421;DHT22;23959;49.046;8.468;2022-07-23T07:12:34;23.00;99.60
421;DHT22;23959;49.046;8.468;2022-07-23T07:15:02;23.20;99.60
421;DHT22;23959;49.046;8.468;2022-07-23T07:17:29;23.20;99.60
421;DHT22;23959;49.046;8.468;2022-07-23T07:19:58;23.10;99.60
421;DHT22;23959;49.046;8.468;2022-07-23T07:22:27;23.20;99.60
421;DHT22;23959;49.046;8.468;2022-07-23T07:24:54;23.20;99.60
421;DHT22;23959;49.046;8.468;2022-07-23T07:27:22;23.20;99.60
421;DHT22;23959;49.046;8.468;2022-07-23T07:29:53;23.20;99.60
421;DHT22;23959;49.046;8.468;2022-07-23T07:32:21;23.20;99.60
421;DHT22;23959;49.046;8.468;2022-07-23T07:34:49;23.40;99.60
421;DHT22;23959;49.046;8.468;2022-07-23T07:37:17;23.30;99.60
421;DHT22;23959;49.046;8.468;2022-07-23T07:39:44;23.10;99.60
421;DHT22;23959;49.046;8.468;2022-07-23T07:42:12;23.00;99.60
421;DHT22;23959;49.046;8.468;2022-07-23T07:44:41;23.00;99.60
421;DHT22;23959;49.046;8.468;2022-07-23T07:47:09;23.00;99.60
421;DHT22;23959;49.046;8.468;2022-07-23T07:49:37;23.10;99.60
421;DHT22;23959;49.046;8.468;2022-07-23T07:52:04;23.40;99.60
421;DHT22;23959;49.046;8.468;2022-07-23T07:54:33;23.50;99.60
421;DHT22;23959;49.046;8.468;2022-07-23T07:57:00;23.50;99.60
421;DHT22;23959;49.046;8.468;2022-07-23T07:59:27;23.50;99.60
421;DHT22;23959;49.046;8.468;2022-07-23T08:01:54;23.60;99.60
421;DHT22;23959;49.046;8.468;2022-07-23T08:04:20;24.00;99.60
421;DHT22;23959;49.046;8.468;2022-07-23T08:06:46;24.40;99.60
421;DHT22;23959;49.046;8.468;2022-07-23T08:09:13;24.50;99.60
421;DHT22;23959;49.046;8.468;2022-07-23T08:11:41;24.60;99.60
421;DHT22;23959;49.046;8.468;2022-07-23T08:14:08;24.90;99.60
421;DHT22;23959;49.046;8.468;2022-07-23T08:16:38;25.20;99.60
421;DHT22;23959;49.046;8.468;2022-07-23T08:19:07;25.40;99.60
421;DHT22;23959;49.046;8.468;2022-07-23T08:21:34;25.50;99.60
421;DHT22;23959;49.046;8.468;2022-07-23T08:24:04;25.60;99.60
421;DHT22;23959;49.046;8.468;2022-07-23T08:26:32;25.30;99.60
421;DHT22;23959;49.046;8.468;2022-07-23T08:28:59;25.10;99.60
421;DHT22;23959;49.046;8.468;2022-07-23T08:31:27;25.40;99.60
421;DHT22;23959;49.046;8.468;2022-07-23T08:33:54;25.30;99.60
421;DHT22;23959;49.046;8.468;2022-07-23T08:36:26;25.50;99.60
421;DHT22;23959;49.046;8.468;2022-07-23T08:38:54;26.00;99.60
421;DHT22;23959;49.046;8.468;2022-07-23T08:41:21;26.20;99.60
421;DHT22;23959;49.046;8.468;2022-07-23T08:43:49;25.80;99.60
421;DHT22;23959;49.046;8.468;2022-07-23T08:46:20;26.30;99.60
421;DHT22;23959;49.046;8.468;2022-07-23T08:48:48;26.10;99.60
421;DHT22;23959;49.046;8.468;2022-07-23T08:51:16;26.40;99.60
421;DHT22;23959;49.046;8.468;2022-07-23T08:53:45;26.80;99.60
421;DHT22;23959;49.046;8.468;2022-07-23T08:56:13;26.90;99.60
421;DHT22;23959;49.046;8.468;2022-07-23T08:58:41;27.30;99.60
421;DHT22;23959;49.046;8.468;2022-07-23T09:01:08;27.50;99.60
421;DHT22;23959;49.046;8.468;2022-07-23T09:03:36;27.60;99.60
421;DHT22;23959;49.046;8.468;2022-07-23T09:06:05;27.50;99.60
421;DHT22;23959;49.046;8.468;2022-07-23T09:08:40;27.60;99.60
421;DHT22;23959;49.046;8.468;2022-07-23T09:11:15;28.00;99.60
421;DHT22;23959;49.046;8.468;2022-07-23T09:16:18;26.60;99.60
421;DHT22;23959;49.046;8.468;2022-07-23T09:18:51;27.00;99.60
421;DHT22;23959;49.046;8.468;2022-07-23T09:21:32;27.30;99.60
421;DHT22;23959;49.046;8.468;2022-07-23T09:24:11;27.20;99.60
421;DHT22;23959;49.046;8.468;2022-07-23T09:26:44;27.50;99.60
421;DHT22;23959;49.046;8.468;2022-07-23T09:29:24;27.60;99.60
421;DHT22;23959;49.046;8.468;2022-07-23T09:31:59;28.10;99.60
421;DHT22;23959;49.046;8.468;2022-07-23T09:34:32;28.40;99.60
421;DHT22;23959;49.046;8.468;2022-07-23T09:37:16;28.40;99.60
421;DHT22;23959;49.046;8.468;2022-07-23T09:39:48;28.30;99.60
421;DHT22;23959;49.046;8.468;2022-07-23T09:42:25;27.90;99.60
421;DHT22;23959;49.046;8.468;2022-07-23T09:44:57;27.70;99.60
421;DHT22;23959;49.046;8.468;2022-07-23T09:47:27;27.90;99.60
421;DHT22;23959;49.046;8.468;2022-07-23T09:50:02;28.40;99.60
421;DHT22;23959;49.046;8.468;2022-07-23T09:52:48;28.10;99.60
421;DHT22;23959;49.046;8.468;2022-07-23T09:55:17;28.40;99.60
421;DHT22;23959;49.046;8.468;2022-07-23T09:57:45;28.30;99.60
421;DHT22;23959;49.046;8.468;2022-07-23T10:00:16;28.50;99.60
421;DHT22;23959;49.046;8.468;2022-07-23T10:02:50;28.50;99.60
421;DHT22;23959;49.046;8.468;2022-07-23T10:05:19;28.20;99.60
421;DHT22;23959;49.046;8.468;2022-07-23T10:07:47;28.50;99.60
421;DHT22;23959;49.046;8.468;2022-07-23T10:10:14;28.30;99.60
421;DHT22;23959;49.046;8.468;2022-07-23T10:12:44;28.60;99.60
421;DHT22;23959;49.046;8.468;2022-07-23T10:15:29;28.70;99.60
421;DHT22;23959;49.046;8.468;2022-07-23T10:17:57;28.50;99.60
421;DHT22;23959;49.046;8.468;2022-07-23T10:20:24;28.30;99.60
421;DHT22;23959;49.046;8.468;2022-07-23T10:23:10;28.40;99.60
421;DHT22;23959;49.046;8.468;2022-07-23T10:28:30;28.70;99.60
421;DHT22;23959;49.046;8.468;2022-07-23T10:39:35;29.20;99.60
421;DHT22;23959;49.046;8.468;2022-07-23T10:42:17;29.60;99.60
421;DHT22;23959;49.046;8.468;2022-07-23T10:44:46;29.70;99.60
421;DHT22;23959;49.046;8.468;2022-07-23T10:47:27;29.40;99.60
421;DHT22;23959;49.046;8.468;2022-07-23T10:50:29;29.60;99.60
421;DHT22;23959;49.046;8.468;2022-07-23T10:58:05;29.10;99.60
421;DHT22;23959;49.046;8.468;2022-07-23T11:00:37;29.70;99.60
421;DHT22;23959;49.046;8.468;2022-07-23T11:03:33;30.00;99.60
421;DHT22;23959;49.046;8.468;2022-07-23T11:06:04;30.20;99.60
421;DHT22;23959;49.046;8.468;2022-07-23T11:08:32;30.30;99.60
421;DHT22;23959;49.046;8.468;2022-07-23T11:13:32;30.60;99.60
421;DHT22;23959;49.046;8.468;2022-07-23T11:24:11;31.60;99.60
421;DHT22;23959;49.046;8.468;2022-07-23T11:26:59;31.50;99.60
421;DHT22;23959;49.046;8.468;2022-07-23T11:34:47;32.00;99.60
421;DHT22;23959;49.046;8.468;2022-07-23T11:37:39;31.40;99.60
421;DHT22;23959;49.046;8.468;2022-07-23T11:40:08;30.60;99.60
421;DHT22;23959;49.046;8.468;2022-07-23T11:42:38;30.40;99.60
421;DHT22;23959;49.046;8.468;2022-07-23T11:45:08;29.90;99.60
421;DHT22;23959;49.046;8.468;2022-07-23T11:47:36;29.70;99.60
421;DHT22;23959;49.046;8.468;2022-07-23T11:50:05;31.00;99.60
421;DHT22;23959;49.046;8.468;2022-07-23T11:52:34;31.30;99.60
421;DHT22;23959;49.046;8.468;2022-07-23T11:55:05;30.40;99.60
421;DHT22;23959;49.046;8.468;2022-07-23T11:57:40;30.50;99.60
421;DHT22;23959;49.046;8.468;2022-07-23T12:02:46;31.40;99.60
421;DHT22;23959;49.046;8.468;2022-07-23T12:05:19;32.10;99.60
421;DHT22;23959;49.046;8.468;2022-07-23T12:07:49;33.40;99.60
421;DHT22;23959;49.046;8.468;2022-07-23T12:10:23;33.60;99.60
421;DHT22;23959;49.046;8.468;2022-07-23T12:15:23;32.00;99.60
421;DHT22;23959;49.046;8.468;2022-07-23T12:17:52;32.00;99.60
421;DHT22;23959;49.046;8.468;2022-07-23T12:20:25;31.30;99.60
421;DHT22;23959;49.046;8.468;2022-07-23T12:22:57;32.20;99.60
421;DHT22;23959;49.046;8.468;2022-07-23T12:25:28;33.60;99.60
421;DHT22;23959;49.046;8.468;2022-07-23T12:28:04;31.90;99.60
421;DHT22;23959;49.046;8.468;2022-07-23T12:30:49;31.10;99.60
421;DHT22;23959;49.046;8.468;2022-07-23T12:33:28;30.80;99.60
421;DHT22;23959;49.046;8.468;2022-07-23T12:35:57;30.80;99.60
421;DHT22;23959;49.046;8.468;2022-07-23T12:38:26;30.90;99.60
421;DHT22;23959;49.046;8.468;2022-07-23T12:40:58;32.50;99.60
421;DHT22;23959;49.046;8.468;2022-07-23T12:48:37;32.50;99.60
421;DHT22;23959;49.046;8.468;2022-07-23T12:54:04;35.60;99.60
421;DHT22;23959;49.046;8.468;2022-07-23T12:56:33;35.60;99.60
421;DHT22;23959;49.046;8.468;2022-07-23T12:59:11;33.90;99.60
421;DHT22;23959;49.046;8.468;2022-07-23T13:01:40;33.60;99.60
421;DHT22;23959;49.046;8.468;2022-07-23T13:06:40;34.80;99.60
421;DHT22;23959;49.046;8.468;2022-07-23T13:09:13;34.70;99.60
421;DHT22;23959;49.046;8.468;2022-07-23T13:11:40;35.10;99.60
421;DHT22;23959;49.046;8.468;2022-07-23T13:14:07;35.50;99.60
421;DHT22;23959;49.046;8.468;2022-07-23T13:16:35;35.60;99.60
421;DHT22;23959;49.046;8.468;2022-07-23T13:19:02;34.90;99.60
421;DHT22;23959;49.046;8.468;2022-07-23T13:21:29;35.40;99.60
421;DHT22;23959;49.046;8.468;2022-07-23T13:23:57;34.20;99.60
421;DHT22;23959;49.046;8.468;2022-07-23T13:26:26;33.70;99.60
421;DHT22;23959;49.046;8.468;2022-07-23T13:28:55;33.80;99.60
421;DHT22;23959;49.046;8.468;2022-07-23T13:31:22;34.00;99.60
421;DHT22;23959;49.046;8.468;2022-07-23T13:33:49;34.50;99.60
421;DHT22;23959;49.046;8.468;2022-07-23T13:38:44;36.50;97.50
421;DHT22;23959;49.046;8.468;2022-07-23T13:41:12;35.80;98.70
421;DHT22;23959;49.046;8.468;2022-07-23T13:43:40;36.50;97.20
421;DHT22;23959;49.046;8.468;2022-07-23T13:46:07;35.90;97.40
421;DHT22;23959;49.046;8.468;2022-07-23T13:48:34;34.40;99.60
421;DHT22;23959;49.046;8.468;2022-07-23T13:51:02;34.50;99.60
421;DHT22;23959;49.046;8.468;2022-07-23T13:53:29;33.80;99.60
421;DHT22;23959;49.046;8.468;2022-07-23T13:55:57;35.20;99.60
421;DHT22;23959;49.046;8.468;2022-07-23T13:58:24;34.60;99.50
421;DHT22;23959;49.046;8.468;2022-07-23T14:00:53;36.10;98.70
421;DHT22;23959;49.046;8.468;2022-07-23T14:05:52;37.10;95.70
421;DHT22;23959;49.046;8.468;2022-07-23T14:08:20;37.90;94.80
421;DHT22;23959;49.046;8.468;2022-07-23T14:10:47;37.80;94.50
421;DHT22;23959;49.046;8.468;2022-07-23T14:13:15;37.20;94.90
421;DHT22;23959;49.046;8.468;2022-07-23T14:15:42;35.80;98.10
421;DHT22;23959;49.046;8.468;2022-07-23T14:18:10;35.70;97.50
421;DHT22;23959;49.046;8.468;2022-07-23T14:20:38;37.10;95.80
421;DHT22;23959;49.046;8.468;2022-07-23T14:23:05;37.60;93.10
421;DHT22;23959;49.046;8.468;2022-07-23T14:25:33;37.30;93.50
421;DHT22;23959;49.046;8.468;2022-07-23T14:28:00;36.10;94.80
421;DHT22;23959;49.046;8.468;2022-07-23T14:30:29;37.10;94.20
421;DHT22;23959;49.046;8.468;2022-07-23T14:33:00;36.20;94.80
421;DHT22;23959;49.046;8.468;2022-07-23T14:35:27;36.20;95.00
421;DHT22;23959;49.046;8.468;2022-07-23T14:37:54;35.30;96.70
421;DHT22;23959;49.046;8.468;2022-07-23T14:40:24;34.70;97.80
421;DHT22;23959;49.046;8.468;2022-07-23T14:42:51;33.90;99.30
421;DHT22;23959;49.046;8.468;2022-07-23T14:45:19;33.40;99.60
421;DHT22;23959;49.046;8.468;2022-07-23T14:47:46;32.90;99.60
421;DHT22;23959;49.046;8.468;2022-07-23T14:50:14;32.90;99.60
421;DHT22;23959;49.046;8.468;2022-07-23T14:52:40;32.60;99.60
421;DHT22;23959;49.046;8.468;2022-07-23T14:55:07;32.50;99.60
421;DHT22;23959;49.046;8.468;2022-07-23T14:57:35;32.70;99.60
421;DHT22;23959;49.046;8.468;2022-07-23T15:00:22;33.30;99.60
421;DHT22;23959;49.046;8.468;2022-07-23T15:02:50;33.90;99.60
421;DHT22;23959;49.046;8.468;2022-07-23T15:05:18;35.30;97.90
421;DHT22;23959;49.046;8.468;2022-07-23T15:07:45;36.50;95.30
421;DHT22;23959;49.046;8.468;2022-07-23T15:10:13;36.40;94.20
421;DHT22;23959;49.046;8.468;2022-07-23T15:12:41;36.50;93.60
421;DHT22;23959;49.046;8.468;2022-07-23T15:15:09;34.80;96.10
421;DHT22;23959;49.046;8.468;2022-07-23T15:17:37;35.40;95.90
421;DHT22;23959;49.046;8.468;2022-07-23T15:20:09;36.10;94.40
421;DHT22;23959;49.046;8.468;2022-07-23T15:22:37;35.80;94.80
421;DHT22;23959;49.046;8.468;2022-07-23T15:25:05;35.70;94.60
421;DHT22;23959;49.046;8.468;2022-07-23T15:27:33;33.60;99.60
421;DHT22;23959;49.046;8.468;2022-07-23T15:34:56;32.20;99.60
421;DHT22;23959;49.046;8.468;2022-07-23T15:37:24;31.50;99.60
421;DHT22;23959;49.046;8.468;2022-07-23T15:39:51;32.60;99.60
421;DHT22;23959;49.046;8.468;2022-07-23T15:42:18;33.00;99.60
421;DHT22;23959;49.046;8.468;2022-07-23T15:44:46;34.70;99.60
421;DHT22;23959;49.046;8.468;2022-07-23T15:47:17;34.90;99.60
421;DHT22;23959;49.046;8.468;2022-07-23T15:49:45;34.00;99.60
421;DHT22;23959;49.046;8.468;2022-07-23T15:52:13;33.40;99.60
421;DHT22;23959;49.046;8.468;2022-07-23T15:54:41;32.90;99.60
421;DHT22;23959;49.046;8.468;2022-07-23T15:57:09;32.40;99.60
421;DHT22;23959;49.046;8.468;2022-07-23T15:59:35;32.10;99.60
421;DHT22;23959;49.046;8.468;2022-07-23T16:02:03;32.20;99.60
421;DHT22;23959;49.046;8.468;2022-07-23T16:04:31;33.30;99.60
421;DHT22;23959;49.046;8.468;2022-07-23T16:06:59;34.60;99.60
421;DHT22;23959;49.046;8.468;2022-07-23T16:09:25;35.40;99.00
421;DHT22;23959;49.046;8.468;2022-07-23T16:11:53;35.30;98.80
421;DHT22;23959;49.046;8.468;2022-07-23T16:14:21;34.60;99.60
421;DHT22;23959;49.046;8.468;2022-07-23T16:16:50;33.60;99.60
421;DHT22;23959;49.046;8.468;2022-07-23T16:19:17;33.10;99.60
421;DHT22;23959;49.046;8.468;2022-07-23T16:21:44;33.00;99.60
421;DHT22;23959;49.046;8.468;2022-07-23T16:24:12;33.30;99.60
421;DHT22;23959;49.046;8.468;2022-07-23T16:26:40;33.10;99.60
421;DHT22;23959;49.046;8.468;2022-07-23T16:29:07;32.70;99.60
421;DHT22;23959;49.046;8.468;2022-07-23T16:31:35;32.40;99.60
421;DHT22;23959;49.046;8.468;2022-07-23T16:34:02;32.10;99.60
421;DHT22;23959;49.046;8.468;2022-07-23T16:36:30;32.20;99.60
421;DHT22;23959;49.046;8.468;2022-07-23T16:38:57;32.10;99.60
421;DHT22;23959;49.046;8.468;2022-07-23T16:41:29;31.90;99.60
421;DHT22;23959;49.046;8.468;2022-07-23T16:43:57;32.00;99.60
421;DHT22;23959;49.046;8.468;2022-07-23T16:46:27;31.80;99.60
421;DHT22;23959;49.046;8.468;2022-07-23T16:48:54;31.70;99.60
421;DHT22;23959;49.046;8.468;2022-07-23T16:51:22;31.60;99.60
421;DHT22;23959;49.046;8.468;2022-07-23T16:53:51;31.80;99.60
421;DHT22;23959;49.046;8.468;2022-07-23T16:56:18;32.00;99.60
421;DHT22;23959;49.046;8.468;2022-07-23T16:58:46;32.30;99.60
421;DHT22;23959;49.046;8.468;2022-07-23T17:01:13;32.50;99.60
421;DHT22;23959;49.046;8.468;2022-07-23T17:03:41;32.40;99.60
421;DHT22;23959;49.046;8.468;2022-07-23T17:06:09;32.50;99.60
421;DHT22;23959;49.046;8.468;2022-07-23T17:08:37;32.40;99.60
421;DHT22;23959;49.046;8.468;2022-07-23T17:11:04;32.30;99.60
421;DHT22;23959;49.046;8.468;2022-07-23T17:13:32;32.00;99.60
421;DHT22;23959;49.046;8.468;2022-07-23T17:16:00;31.80;99.60